Time;durP1;ratioP1;P1;durP2;ratioP2;P2;SDS_P1;SDS_P2;PMS_P1;PMS_P2;Temp;Humidity;BMP_temperature;BMP_pressure;BME280_temperature;BME280_humidity;BME280_pressure;Samples;Min_cycle;Max_cycle;Signal;HPM_P1;HPM_P2
2022/04/27 00:01:55;;;;;;;15.27;10.05;;;11.70;99.90;;;;;;5082552;28;20048;-80
2022/04/27 00:04:22;;;;;;;16.00;9.65;;;11.70;99.90;;;;;;5075040;28;20492;-80
2022/04/27 00:06:50;;;;;;;14.50;9.57;;;11.70;99.90;;;;;;5083979;28;20054;-80
2022/04/27 00:09:17;;;;;;;16.40;9.18;;;11.70;99.90;;;;;;5099555;28;20063;-80
2022/04/27 00:11:45;;;;;;;18.13;10.45;;;11.60;99.90;;;;;;5072494;28;20048;-79
2022/04/27 00:14:12;;;;;;;14.13;9.40;;;11.60;99.90;;;;;;5081708;28;20043;-79
2022/04/27 00:16:40;;;;;;;13.02;8.27;;;11.50;99.90;;;;;;5062722;28;20063;-80
2022/04/27 00:19:09;;;;;;;14.70;8.27;;;11.50;99.90;;;;;;5063341;28;20055;-79
2022/04/27 00:21:36;;;;;;;14.05;8.90;;;11.40;99.90;;;;;;5096133;28;20071;-79
2022/04/27 00:24:04;;;;;;;18.80;11.32;;;11.30;99.90;;;;;;5103580;28;20123;-79
2022/04/27 00:26:31;;;;;;;16.40;10.23;;;11.20;99.90;;;;;;5085658;28;20045;-80
2022/04/27 00:28:58;;;;;;;16.73;11.15;;;11.20;99.90;;;;;;5102911;28;20040;-79
2022/04/27 00:31:26;;;;;;;18.02;11.93;;;11.30;99.90;;;;;;5103383;28;20044;-79
2022/04/27 00:33:53;;;;;;;17.42;11.27;;;11.30;99.90;;;;;;5085646;28;20048;-80
2022/04/27 00:36:22;;;;;;;16.42;11.68;;;11.20;99.90;;;;;;5086220;28;20142;-80
2022/04/27 00:38:50;;;;;;;15.75;11.15;;;11.20;99.90;;;;;;5085100;28;20135;-80
2022/04/27 00:41:18;;;;;;;18.98;12.13;;;11.30;99.90;;;;;;5098482;28;20040;-79
2022/04/27 00:43:48;;;;;;;18.10;11.23;;;11.20;99.90;;;;;;5074930;28;20048;-80
2022/04/27 00:46:15;;;;;;;15.02;10.05;;;11.20;99.90;;;;;;5081780;28;20111;-80
2022/04/27 00:48:43;;;;;;;15.77;10.30;;;11.20;99.90;;;;;;5074150;28;20048;-80
2022/04/27 00:51:15;;;;;;;15.35;8.95;;;11.20;99.90;;;;;;5076333;28;20112;-80
2022/04/27 00:53:44;;;;;;;14.35;9.55;;;11.10;99.90;;;;;;5098062;28;20464;-78
2022/04/27 00:56:13;;;;;;;15.70;9.82;;;11.00;99.90;;;;;;5098872;28;20066;-78
2022/04/27 00:58:41;;;;;;;12.82;8.80;;;11.00;99.90;;;;;;5100386;28;20046;-78
2022/04/27 01:01:08;;;;;;;16.73;10.00;;;11.00;99.90;;;;;;5093573;28;20044;-76
2022/04/27 01:03:37;;;;;;;13.35;9.38;;;11.00;99.90;;;;;;5083686;28;20029;-76
2022/04/27 01:06:05;;;;;;;13.27;8.85;;;10.90;99.90;;;;;;5072433;28;20088;-77
2022/04/27 01:08:32;;;;;;;15.32;9.90;;;10.90;99.90;;;;;;5088575;28;20048;-77
2022/04/27 01:11:03;;;;;;;17.02;10.32;;;10.80;99.90;;;;;;5084494;28;20456;-77
2022/04/27 01:13:38;;;;;;;13.38;9.60;;;10.80;99.90;;;;;;5079203;28;20082;-79
2022/04/27 01:16:06;;;;;;;13.10;9.75;;;10.70;99.90;;;;;;5079332;28;20048;-77
2022/04/27 01:18:34;;;;;;;17.70;10.55;;;10.70;99.90;;;;;;5079034;28;20048;-77
2022/04/27 01:21:11;;;;;;;14.88;9.65;;;10.60;99.90;;;;;;5089593;28;20090;-77
2022/04/27 01:23:46;;;;;;;15.13;10.07;;;10.60;99.90;;;;;;5026592;28;20515;-77
2022/04/27 01:26:14;;;;;;;16.10;9.38;;;10.60;99.90;;;;;;5038204;28;20063;-77
2022/04/27 01:28:41;;;;;;;13.82;9.75;;;10.50;99.90;;;;;;5038049;28;20045;-77
2022/04/27 01:31:11;;;;;;;13.85;10.20;;;10.50;99.90;;;;;;5022390;28;20077;-77
2022/04/27 01:33:39;;;;;;;14.27;9.25;;;10.50;99.90;;;;;;5038687;28;20512;-77
2022/04/27 01:36:13;;;;;;;15.65;8.30;;;10.40;99.90;;;;;;5024139;28;20057;-77
2022/04/27 01:38:41;;;;;;;10.73;8.13;;;10.40;99.90;;;;;;5039080;28;20057;-77
2022/04/27 01:41:09;;;;;;;10.15;7.07;;;10.40;99.90;;;;;;5040911;28;20379;-77
2022/04/27 01:43:38;;;;;;;11.43;6.75;;;10.30;99.90;;;;;;5078754;28;20154;-77
2022/04/27 01:46:06;;;;;;;11.82;7.60;;;10.30;99.90;;;;;;5079376;28;20143;-77
2022/04/27 01:48:34;;;;;;;13.98;8.25;;;10.20;99.90;;;;;;5096663;28;20036;-77
2022/04/27 01:51:02;;;;;;;15.90;9.00;;;10.10;99.90;;;;;;5080927;28;20054;-76
2022/04/27 01:56:19;;;;;;;14.68;10.07;;;10.00;99.90;;;;;;5080694;28;20569;-77
2022/04/27 01:58:51;;;;;;;16.58;10.30;;;10.00;99.90;;;;;;5094743;28;20101;-77
2022/04/27 02:01:21;;;;;;;15.25;9.02;;;10.00;99.90;;;;;;5077992;28;20048;-77
2022/04/27 02:03:51;;;;;;;15.10;9.50;;;9.90;99.90;;;;;;5078508;28;20156;-78
2022/04/27 02:06:20;;;;;;;12.32;8.13;;;9.90;99.90;;;;;;5078034;28;20055;-78
2022/04/27 02:08:49;;;;;;;11.82;7.20;;;9.80;99.90;;;;;;5077625;28;20148;-78
2022/04/27 02:11:24;;;;;;;13.23;7.25;;;9.70;99.90;;;;;;5077555;28;20062;-76
2022/04/27 02:14:06;;;;;;;10.32;7.20;;;9.70;99.90;;;;;;5077496;28;20047;-75
2022/04/27 02:16:35;;;;;;;10.15;6.63;;;9.60;99.90;;;;;;5077915;28;20044;-78
2022/04/27 02:19:04;;;;;;;12.82;7.95;;;9.60;99.90;;;;;;5066762;28;20049;-78
2022/04/27 02:21:32;;;;;;;10.95;7.40;;;9.60;99.90;;;;;;5068789;28;20094;-77
2022/04/27 02:24:02;;;;;;;10.52;6.40;;;9.70;99.90;;;;;;5085289;28;20114;-78
2022/04/27 02:26:30;;;;;;;12.13;7.95;;;9.60;99.90;;;;;;5057279;28;20070;-78
2022/04/27 02:29:00;;;;;;;11.90;6.75;;;9.60;99.90;;;;;;5057034;28;20411;-77
2022/04/27 02:31:29;;;;;;;9.95;6.47;;;9.60;99.90;;;;;;5056959;28;20052;-77
2022/04/27 02:33:56;;;;;;;11.63;7.40;;;9.50;99.90;;;;;;5056788;28;20047;-77
2022/04/27 02:36:25;;;;;;;9.88;6.65;;;9.50;99.90;;;;;;5060206;28;20056;-77
2022/04/27 02:38:53;;;;;;;11.73;6.40;;;9.50;99.90;;;;;;5095070;28;20053;-77
2022/04/27 02:41:23;;;;;;;10.30;6.35;;;9.40;99.90;;;;;;5077430;28;20387;-77
2022/04/27 02:43:50;;;;;;;10.00;6.13;;;9.40;99.90;;;;;;5076059;28;20044;-77
2022/04/27 02:46:20;;;;;;;10.13;6.13;;;9.40;99.90;;;;;;5077041;28;20048;-77
2022/04/27 02:51:51;;;;;;;8.85;6.53;;;9.40;99.90;;;;;;5093102;28;20132;-76
2022/04/27 02:54:28;;;;;;;8.80;6.68;;;9.40;99.90;;;;;;5072167;28;20396;-77
2022/04/27 02:57:04;;;;;;;14.27;7.88;;;9.40;99.90;;;;;;5066418;28;20045;-77
2022/04/27 02:59:33;;;;;;;11.32;7.97;;;9.40;99.90;;;;;;5068814;28;20044;-77
2022/04/27 03:02:01;;;;;;;10.73;6.97;;;9.40;99.90;;;;;;5061873;28;20131;-77
2022/04/27 03:04:29;;;;;;;11.82;7.75;;;9.40;99.90;;;;;;5087426;28;20082;-77
2022/04/27 03:06:57;;;;;;;13.75;8.18;;;9.40;99.90;;;;;;5092365;28;20044;-77
2022/04/27 03:09:25;;;;;;;18.33;9.85;;;9.30;99.90;;;;;;5065010;28;20072;-77
2022/04/27 03:11:53;;;;;;;12.88;8.00;;;9.20;99.90;;;;;;5064432;28;20485;-77
2022/04/27 03:14:30;;;;;;;14.07;8.02;;;9.20;99.90;;;;;;5056667;28;20052;-77
2022/04/27 03:16:58;;;;;;;13.52;8.90;;;9.20;99.90;;;;;;5075269;28;20143;-77
2022/04/27 03:19:26;;;;;;;12.73;8.25;;;9.20;99.90;;;;;;5085169;28;20415;-77
2022/04/27 03:21:53;;;;;;;13.80;8.43;;;9.10;99.90;;;;;;5069526;28;20055;-78
2022/04/27 03:24:23;;;;;;;18.45;9.38;;;9.20;99.90;;;;;;5076784;28;20048;-78
2022/04/27 03:26:52;;;;;;;12.45;7.90;;;9.10;99.90;;;;;;5077751;28;20044;-77
2022/04/27 03:29:22;;;;;;;12.35;7.82;;;9.10;99.90;;;;;;5078043;28;20139;-77
2022/04/27 03:31:57;;;;;;;13.38;9.15;;;9.20;99.90;;;;;;5078064;28;20040;-77
2022/04/27 03:34:25;;;;;;;14.80;9.68;;;9.20;99.90;;;;;;5077321;28;20050;-77
2022/04/27 03:36:56;;;;;;;14.18;9.13;;;9.10;99.90;;;;;;5077308;28;20065;-77
2022/04/27 03:39:24;;;;;;;15.90;9.00;;;9.10;99.90;;;;;;5093562;28;20051;-77
2022/04/27 03:41:53;;;;;;;13.98;8.85;;;9.10;99.90;;;;;;5076440;28;20097;-77
2022/04/27 03:44:21;;;;;;;15.90;9.15;;;9.00;99.90;;;;;;5094745;28;20067;-77
2022/04/27 03:46:48;;;;;;;16.02;8.25;;;9.00;99.90;;;;;;5076593;28;20113;-77
2022/04/27 03:49:17;;;;;;;16.10;9.02;;;9.00;99.90;;;;;;5094756;28;20047;-78
2022/04/27 03:51:45;;;;;;;17.05;10.05;;;9.00;99.90;;;;;;5094285;28;20048;-77
2022/04/27 03:54:13;;;;;;;16.40;8.98;;;9.00;99.90;;;;;;5071339;28;20495;-77
2022/04/27 03:56:41;;;;;;;11.93;8.15;;;9.00;99.90;;;;;;5065043;28;20052;-77
2022/04/27 03:59:11;;;;;;;11.13;7.20;;;8.90;99.90;;;;;;5069801;28;20125;-77
2022/04/27 04:01:39;;;;;;;9.27;6.70;;;9.00;99.90;;;;;;5081142;28;20047;-77
2022/04/27 04:04:06;;;;;;;13.95;7.82;;;9.00;99.90;;;;;;5078831;28;20047;-77
2022/04/27 04:06:38;;;;;;;13.55;8.50;;;9.00;99.90;;;;;;5071924;28;20056;-77
2022/04/27 04:09:06;;;;;;;15.73;8.60;;;9.00;99.90;;;;;;5089440;28;20052;-76
2022/04/27 04:11:33;;;;;;;16.10;8.85;;;9.20;99.90;;;;;;5060245;28;20082;-77
2022/04/27 04:14:19;;;;;;;12.98;8.48;;;9.50;99.90;;;;;;5078802;28;20051;-77
2022/04/27 04:16:53;;;;;;;15.02;9.38;;;9.60;99.90;;;;;;5079359;28;20050;-77
2022/04/27 04:19:46;;;;;;;16.40;9.85;;;9.80;99.90;;;;;;5096335;28;20056;-77
2022/04/27 04:22:41;;;;;;;16.63;10.18;;;10.20;99.90;;;;;;5099972;28;20044;-77
2022/04/27 04:30:51;;;;;;;15.80;10.10;;;10.80;99.90;;;;;;5074212;28;20112;-77
2022/04/27 04:33:41;;;;;;;17.75;10.65;;;10.80;99.90;;;;;;5097397;28;20040;-77
2022/04/27 04:36:10;;;;;;;16.45;10.65;;;10.60;99.90;;;;;;5068605;28;20415;-77
2022/04/27 04:38:41;;;;;;;12.43;9.25;;;10.60;99.90;;;;;;5077941;28;20041;-77
2022/04/27 04:41:11;;;;;;;19.92;10.07;;;10.50;99.90;;;;;;5070728;28;20045;-77
2022/04/27 04:43:47;;;;;;;17.10;9.52;;;10.40;99.90;;;;;;5079725;28;20043;-79
2022/04/27 04:46:15;;;;;;;12.20;8.80;;;10.60;99.90;;;;;;5084588;28;20495;-77
2022/04/27 04:49:08;;;;;;;10.68;8.02;;;10.60;99.90;;;;;;5081035;28;20143;-77
2022/04/27 04:51:47;;;;;;;11.40;7.70;;;10.70;99.90;;;;;;5081711;28;20172;-77
2022/04/27 04:54:42;;;;;;;12.35;7.50;;;10.90;99.90;;;;;;5088690;28;20044;-77
2022/04/27 04:57:10;;;;;;;15.18;8.63;;;11.10;99.90;;;;;;5079154;28;20056;-77
2022/04/27 05:00:09;;;;;;;12.73;8.75;;;11.20;99.90;;;;;;5057494;28;20041;-78
2022/04/27 05:02:55;;;;;;;19.77;10.65;;;11.30;99.90;;;;;;5070388;28;20070;-77
2022/04/27 05:05:56;;;;;;;19.58;10.48;;;11.60;99.90;;;;;;5066043;28;20045;-77
2022/04/27 05:08:39;;;;;;;15.20;10.45;;;11.90;99.90;;;;;;5086177;28;20070;-76
2022/04/27 05:11:37;;;;;;;15.02;9.63;;;12.10;99.90;;;;;;5050838;28;20136;-77
2022/04/27 05:14:17;;;;;;;19.30;12.95;;;12.40;99.90;;;;;;5064095;28;20052;-77
2022/04/27 05:17:03;;;;;;;;;;;12.50;99.90;;;;;;5073265;28;20057;-78
2022/04/27 05:19:48;;;;;;;17.45;11.38;;;12.90;99.90;;;;;;5073862;28;19924;-77
2022/04/27 05:22:48;;;;;;;17.58;9.63;;;13.00;99.90;;;;;;5070346;28;20045;-78
2022/04/27 05:25:35;;;;;;;15.77;11.10;;;13.30;99.90;;;;;;5070370;28;20046;-78
2022/04/27 05:28:17;;;;;;;15.75;9.70;;;13.40;99.90;;;;;;5076059;28;20051;-77
2022/04/27 05:34:12;;;;;;;15.55;8.73;;;14.10;99.90;;;;;;5077872;28;20499;-77
2022/04/27 05:36:46;;;;;;;11.43;7.13;;;14.40;99.90;;;;;;5077698;28;20044;-78
2022/04/27 05:39:27;;;;;;;11.43;7.97;;;14.60;99.90;;;;;;5086689;28;20052;-77
2022/04/27 05:42:18;;;;;;;12.77;7.25;;;15.00;99.90;;;;;;5075209;28;20107;-77
2022/04/27 05:45:26;;;;;;;13.85;8.13;;;15.30;99.90;;;;;;5077031;28;20503;-77
2022/04/27 05:48:03;;;;;;;13.90;7.45;;;15.50;99.90;;;;;;5071470;28;20135;-77
2022/04/27 05:50:41;;;;;;;12.95;8.23;;;15.70;99.90;;;;;;5071569;28;20138;-79
2022/04/27 05:53:24;;;;;;;14.85;8.40;;;15.60;99.90;;;;;;5077119;28;20044;-76
2022/04/27 05:56:05;;;;;;;13.40;8.35;;;15.40;99.90;;;;;;5077851;28;20069;-76
2022/04/27 05:58:42;;;;;;;15.18;8.77;;;15.40;99.90;;;;;;5096661;28;20060;-76
2022/04/27 06:01:16;;;;;;;13.10;7.47;;;15.40;99.90;;;;;;5096263;28;20072;-77
2022/04/27 06:03:57;;;;;;;14.82;8.20;;;15.40;99.90;;;;;;5096943;28;20564;-77
2022/04/27 06:06:26;;;;;;;19.40;8.68;;;15.60;99.90;;;;;;5088519;28;20044;-76
2022/04/27 06:08:54;;;;;;;15.38;8.60;;;15.70;99.90;;;;;;5086409;28;20051;-77
2022/04/27 06:11:42;;;;;;;14.07;7.65;;;15.70;99.90;;;;;;5103436;28;20112;-76
2022/04/27 06:14:28;;;;;;;13.07;7.85;;;15.90;99.90;;;;;;5100362;28;20055;-77
2022/04/27 06:16:57;;;;;;;10.25;6.35;;;16.00;99.90;;;;;;5087815;28;20131;-77
2022/04/27 06:19:25;;;;;;;12.48;7.50;;;16.20;99.90;;;;;;5089068;28;20076;-77
2022/04/27 06:21:54;;;;;;;14.90;6.90;;;16.40;99.90;;;;;;5084644;28;20137;-77
2022/04/27 06:24:24;;;;;;;14.88;7.72;;;16.40;99.90;;;;;;5087638;28;20040;-77
2022/04/27 06:26:56;;;;;;;11.90;6.28;;;16.50;99.90;;;;;;5078828;28;20082;-77
2022/04/27 06:29:24;;;;;;;18.60;7.57;;;16.60;99.90;;;;;;5077123;28;20068;-78
2022/04/27 06:31:54;;;;;;;12.95;7.22;;;16.80;99.90;;;;;;5076318;28;20407;-77
2022/04/27 06:34:22;;;;;;;13.32;6.70;;;16.70;99.90;;;;;;5069713;28;20044;-78
2022/04/27 06:36:50;;;;;;;11.68;7.07;;;16.70;99.90;;;;;;5067794;28;20122;-77
2022/04/27 06:39:45;;;;;;;9.60;6.80;;;17.00;99.90;;;;;;5088911;28;20040;-78
2022/04/27 06:42:13;;;;;;;10.60;6.43;;;17.30;99.90;;;;;;5076995;28;20517;-77
2022/04/27 06:45:01;;;;;;;11.07;7.43;;;17.70;99.90;;;;;;5094848;28;20114;-77
2022/04/27 06:47:47;;;;;;;10.25;7.00;;;18.20;99.90;;;;;;5094838;28;20054;-77
2022/04/27 06:50:34;;;;;;;13.07;7.63;;;18.50;99.90;;;;;;5095049;28;20071;-77
2022/04/27 06:53:20;;;;;;;10.85;6.75;;;18.90;99.90;;;;;;5094363;28;20165;-77
2022/04/27 06:56:06;;;;;;;14.82;7.90;;;18.90;99.90;;;;;;5094650;28;20090;-77
2022/04/27 06:58:54;;;;;;;13.20;9.35;;;18.80;99.90;;;;;;5032895;28;20105;-77
2022/04/27 07:01:28;;;;;;;14.32;8.13;;;18.90;99.90;;;;;;5076306;28;20047;-78
2022/04/27 07:03:56;;;;;;;14.07;9.98;;;19.10;99.90;;;;;;5076039;28;20139;-78
2022/04/27 07:06:26;;;;;;;24.88;12.77;;;19.20;99.90;;;;;;5076732;28;20048;-76
2022/04/27 07:08:53;;;;;;;15.10;10.38;;;19.50;99.90;;;;;;5076084;28;20135;-78
2022/04/27 07:11:21;;;;;;;15.40;10.05;;;19.60;99.90;;;;;;5094714;28;20047;-78
2022/04/27 07:13:48;;;;;;;14.65;10.10;;;19.90;99.90;;;;;;5075652;28;20430;-78
2022/04/27 07:16:16;;;;;;;15.25;9.93;;;19.90;99.90;;;;;;5093790;28;20048;-78
2022/04/27 07:18:44;;;;;;;23.17;13.20;;;20.10;99.90;;;;;;5094121;28;20040;-78
2022/04/27 07:21:11;;;;;;;13.38;9.05;;;20.10;99.90;;;;;;5076261;28;20056;-77
2022/04/27 07:23:40;;;;;;;11.50;8.57;;;20.30;99.90;;;;;;5093079;28;20131;-78
2022/04/27 07:26:08;;;;;;;16.42;10.38;;;20.20;99.90;;;;;;5075989;28;20146;-78
2022/04/27 07:28:36;;;;;;;24.65;11.70;;;20.20;99.90;;;;;;5089724;28;20047;-79
2022/04/27 07:31:04;;;;;;;25.02;10.55;;;20.30;99.90;;;;;;5059355;28;20055;-79
2022/04/27 07:33:31;;;;;;;18.45;11.18;;;20.30;99.90;;;;;;5077424;28;20041;-78
2022/04/27 07:35:59;;;;;;;18.17;9.95;;;20.20;99.90;;;;;;5077059;28;20037;-77
2022/04/27 07:38:27;;;;;;;19.45;9.40;;;19.90;99.90;;;;;;5074776;28;20050;-77
2022/04/27 07:40:55;;;;;;;15.82;8.98;;;20.00;99.90;;;;;;5058785;28;20407;-79
2022/04/27 07:43:23;;;;;;;16.10;9.00;;;20.10;99.90;;;;;;5056573;28;20044;-78
2022/04/27 07:45:50;;;;;;;23.17;12.27;;;19.90;99.90;;;;;;5075208;28;20064;-78
2022/04/27 07:48:18;;;;;;;21.23;12.85;;;20.00;99.90;;;;;;5074801;28;20053;-78
2022/04/27 07:50:45;;;;;;;13.73;9.60;;;20.30;99.90;;;;;;5077673;28;20116;-79
2022/04/27 07:53:12;;;;;;;17.40;10.85;;;20.70;99.90;;;;;;5058004;28;20071;-79
2022/04/27 07:55:40;;;;;;;24.13;9.80;;;20.70;99.90;;;;;;5075956;28;20040;-79
2022/04/27 07:58:09;;;;;;;24.42;9.25;;;20.80;99.90;;;;;;5077043;28;20066;-79
2022/04/27 08:00:36;;;;;;;17.67;8.45;;;21.00;99.90;;;;;;5077114;28;20037;-79
2022/04/27 08:03:04;;;;;;;13.90;10.23;;;20.90;99.90;;;;;;5074782;28;20044;-78
2022/04/27 08:05:32;;;;;;;14.40;9.27;;;21.10;99.90;;;;;;5075219;28;20495;-78
2022/04/27 08:07:59;;;;;;;17.35;10.05;;;21.20;99.90;;;;;;5074645;28;20048;-77
2022/04/27 08:10:26;;;;;;;17.67;8.55;;;21.40;99.90;;;;;;5074461;28;20041;-79
2022/04/27 08:12:54;;;;;;;12.93;8.00;;;21.50;99.90;;;;;;5073185;28;20061;-77
2022/04/27 08:15:25;;;;;;;12.18;7.68;;;21.20;99.90;;;;;;5073737;28;20047;-78
2022/04/27 08:17:56;;;;;;;17.70;5.82;;;21.30;99.90;;;;;;5074035;28;20044;-78
2022/04/27 08:23:10;;;;;;;26.23;17.15;;;21.80;99.90;;;;;;5073791;28;20135;-78
2022/04/27 08:25:38;;;;;;;19.98;9.63;;;21.90;99.90;;;;;;5074625;28;20492;-78
2022/04/27 08:28:07;;;;;;;17.95;9.05;;;21.80;99.90;;;;;;5055527;28;20070;-78
2022/04/27 08:30:37;;;;;;;19.40;8.05;;;21.80;99.90;;;;;;5074364;28;20503;-77
2022/04/27 08:33:06;;;;;;;14.57;7.40;;;21.60;99.90;;;;;;5073986;28;20108;-78
2022/04/27 08:35:34;;;;;;;16.02;7.00;;;21.50;99.90;;;;;;5074260;28;20040;-78
2022/04/27 08:38:02;;;;;;;15.85;8.18;;;21.00;99.90;;;;;;5073829;28;20463;-78
2022/04/27 08:40:29;;;;;;;17.17;7.78;;;20.90;99.90;;;;;;5074074;28;20044;-78
2022/04/27 08:43:01;;;;;;;15.52;8.02;;;21.10;99.90;;;;;;5076446;28;20041;-77
2022/04/27 08:45:29;;;;;;;14.35;8.73;;;21.30;99.90;;;;;;5077714;28;20072;-77
2022/04/27 08:47:59;;;;;;;13.75;8.48;;;21.50;99.90;;;;;;5059361;28;20123;-77
2022/04/27 08:50:28;;;;;;;11.57;6.22;;;21.70;99.90;;;;;;5059964;28;20098;-78
2022/04/27 08:52:56;;;;;;;9.35;5.60;;;21.60;99.90;;;;;;5079267;28;20048;-79
2022/04/27 08:55:27;;;;;;;13.43;6.05;;;21.60;99.90;;;;;;5077801;28;20044;-78
2022/04/27 08:57:55;;;;;;;13.10;6.88;;;21.40;99.90;;;;;;5078416;28;20051;-77
2022/04/27 09:00:23;;;;;;;15.20;6.95;;;21.60;99.90;;;;;;5078785;28;20514;-79
2022/04/27 09:02:54;;;;;;;15.98;7.43;;;21.80;99.90;;;;;;5059310;28;20055;-78
2022/04/27 09:05:24;;;;;;;12.98;6.68;;;22.00;99.90;;;;;;5077659;28;20036;-78
2022/04/27 09:07:57;;;;;;;12.35;5.95;;;22.10;99.90;;;;;;5076650;28;20094;-78
2022/04/27 09:10:25;;;;;;;12.35;7.97;;;22.20;99.90;;;;;;5059198;28;20049;-78
2022/04/27 09:12:54;;;;;;;14.68;6.40;;;22.40;99.90;;;;;;5077039;28;20044;-78
2022/04/27 09:15:23;;;;;;;11.30;7.35;;;22.40;99.90;;;;;;5059295;28;20090;-78
2022/04/27 09:20:50;;;;;;;16.25;7.22;;;22.60;99.90;;;;;;5062348;28;20121;-78
2022/04/27 09:23:25;;;;;;;13.50;8.10;;;22.70;99.90;;;;;;5086087;28;20049;-78
2022/04/27 09:25:55;;;;;;;12.50;6.13;;;22.90;99.90;;;;;;5077644;28;20041;-78
2022/04/27 09:28:27;;;;;;;8.55;6.10;;;22.90;99.90;;;;;;5076896;28;20098;-78
2022/04/27 09:30:55;;;;;;;11.27;5.43;;;22.90;99.90;;;;;;5077007;28;20488;-78
2022/04/27 09:33:33;;;;;;;13.63;7.10;;;22.50;99.90;;;;;;5076335;28;20168;-78
2022/04/27 09:36:05;;;;;;;11.68;6.82;;;22.60;99.90;;;;;;5058852;28;20139;-78
2022/04/27 09:38:41;;;;;;;10.93;7.15;;;22.60;99.90;;;;;;5059086;28;20055;-78
2022/04/27 09:41:09;;;;;;;10.77;6.60;;;22.60;99.90;;;;;;5060485;28;20063;-78
2022/04/27 09:43:44;;;;;;;18.85;8.00;;;22.60;99.90;;;;;;5077786;28;20048;-77
2022/04/27 09:46:16;;;;;;;21.13;8.40;;;22.50;99.90;;;;;;5078377;28;20108;-79
2022/04/27 09:48:46;;;;;;;20.33;14.02;;;22.50;99.90;;;;;;5080955;28;20051;-78
2022/04/27 09:51:15;;;;;;;14.30;9.48;;;22.90;99.90;;;;;;5096080;28;20083;-79
2022/04/27 09:53:43;;;;;;;20.80;10.75;;;23.20;99.90;;;;;;5077990;28;20459;-80
2022/04/27 09:56:13;;;;;;;20.85;10.63;;;23.60;99.90;;;;;;5097363;28;20050;-81
2022/04/27 09:58:44;;;;;;;16.95;10.27;;;23.80;99.90;;;;;;5098851;28;20051;-80
2022/04/27 10:01:14;;;;;;;14.60;7.97;;;23.60;99.90;;;;;;5082561;28;20098;-81
2022/04/27 10:03:42;;;;;;;16.42;9.52;;;23.40;99.90;;;;;;5099608;28;20043;-81
2022/04/27 10:06:10;;;;;;;17.15;9.18;;;23.50;99.90;;;;;;5098911;28;20058;-81
2022/04/27 10:08:40;;;;;;;13.07;8.27;;;23.80;99.90;;;;;;5097937;28;20055;-80
2022/04/27 10:11:09;;;;;;;14.20;8.43;;;24.10;99.90;;;;;;5099776;28;20114;-79
2022/04/27 10:13:38;;;;;;;13.90;8.65;;;24.30;99.90;;;;;;5099314;28;20046;-81
2022/04/27 10:16:06;;;;;;;14.75;8.10;;;24.50;99.90;;;;;;5099618;28;20040;-81
2022/04/27 10:18:33;;;;;;;11.75;7.22;;;24.30;99.90;;;;;;5096899;28;20405;-81
2022/04/27 10:21:04;;;;;;;14.38;7.13;;;24.20;99.90;;;;;;5097773;28;20063;-80
2022/04/27 10:23:32;;;;;;;16.13;7.10;;;24.40;99.90;;;;;;5096815;28;20131;-81
2022/04/27 10:26:13;;;;;;;15.85;6.75;;;24.60;99.90;;;;;;5085114;28;20479;-79
2022/04/27 10:28:43;;;;;;;8.45;4.72;;;24.90;99.90;;;;;;5097226;28;20089;-77
2022/04/27 10:31:11;;;;;;;6.47;4.32;;;24.10;99.90;;;;;;5094205;28;20455;-77
2022/04/27 10:33:43;;;;;;;8.35;3.95;;;23.60;99.90;;;;;;5094172;28;20115;-77
2022/04/27 10:36:25;;;;;;;7.13;3.95;;;23.30;99.90;;;;;;5094089;28;20040;-77
2022/04/27 10:39:18;;;;;;;7.10;3.72;;;22.80;99.90;;;;;;5082404;28;20462;-77
2022/04/27 10:41:56;;;;;;;7.53;4.03;;;22.20;99.90;;;;;;5074566;28;20040;-77
2022/04/27 10:44:49;;;;;;;7.45;4.55;;;21.90;99.90;;;;;;5057093;28;20521;-77
2022/04/27 10:47:18;;;;;;;8.23;4.68;;;22.00;99.90;;;;;;5074225;28;20055;-77
2022/04/27 10:49:47;;;;;;;9.10;5.00;;;22.40;99.90;;;;;;5074624;28;20044;-78
2022/04/27 10:52:15;;;;;;;5.88;4.25;;;22.50;99.90;;;;;;5074906;28;20048;-78
2022/04/27 10:54:43;;;;;;;8.80;5.18;;;22.80;99.90;;;;;;5056328;28;20425;-77
2022/04/27 10:57:42;;;;;;;5.35;4.15;;;22.60;99.90;;;;;;5073724;28;20071;-77
2022/04/27 11:00:11;;;;;;;8.32;4.63;;;22.40;99.90;;;;;;5073502;28;20495;-77
2022/04/27 11:02:39;;;;;;;7.25;4.00;;;22.40;99.90;;;;;;5091755;28;20124;-76
2022/04/27 11:05:20;;;;;;;6.53;3.63;;;22.40;99.90;;;;;;5092993;28;20044;-77
2022/04/27 11:07:55;;;;;;;8.07;4.10;;;22.60;99.90;;;;;;5085293;28;20101;-78
2022/04/27 11:10:24;;;;;;;6.00;4.05;;;22.80;99.90;;;;;;5098625;28;20123;-78
2022/04/27 11:12:54;;;;;;;7.13;4.05;;;23.20;99.90;;;;;;5083689;28;20450;-79
2022/04/27 11:15:25;;;;;;;7.15;3.72;;;23.40;99.90;;;;;;5089983;28;20111;-78
2022/04/27 11:18:01;;;;;;;4.85;3.70;;;23.50;99.90;;;;;;5079708;28;20054;-78
2022/04/27 11:20:33;;;;;;;12.65;4.07;;;23.30;99.90;;;;;;5099860;28;20047;-79
2022/04/27 11:23:03;;;;;;;6.85;3.50;;;22.90;99.90;;;;;;5099781;28;20054;-78
2022/04/27 11:25:32;;;;;;;5.15;3.75;;;22.70;99.90;;;;;;5099188;28;20036;-79
2022/04/27 11:28:01;;;;;;;6.43;3.70;;;22.60;99.90;;;;;;5099384;28;20060;-79
2022/04/27 11:30:30;;;;;;;7.20;4.20;;;22.50;99.90;;;;;;5099064;28;20063;-79
2022/04/27 11:32:59;;;;;;;7.03;3.85;;;21.90;99.90;;;;;;5098223;28;20048;-78
2022/04/27 11:35:38;;;;;;;6.03;3.90;;;21.70;99.90;;;;;;5100542;28;20491;-78
2022/04/27 11:38:06;;;;;;;8.70;4.57;;;21.40;99.90;;;;;;5104404;28;20098;-78
2022/04/27 11:40:37;;;;;;;8.35;3.85;;;21.20;99.90;;;;;;5106741;28;20044;-78
2022/04/27 11:43:07;;;;;;;6.43;4.45;;;21.10;99.90;;;;;;5104879;28;20138;-78
2022/04/27 11:45:34;;;;;;;8.15;3.75;;;21.00;99.90;;;;;;5101503;28;20048;-78
2022/04/27 11:48:03;;;;;;;6.18;3.70;;;21.00;99.90;;;;;;5103180;28;20105;-78
2022/04/27 11:50:32;;;;;;;5.28;4.15;;;21.10;99.90;;;;;;5101988;28;20040;-79
2022/04/27 11:53:01;;;;;;;6.88;4.20;;;21.00;99.90;;;;;;5080183;28;20062;-79
2022/04/27 11:55:29;;;;;;;6.00;3.22;;;20.90;99.90;;;;;;5099426;28;20044;-79
2022/04/27 11:57:56;;;;;;;7.85;4.20;;;20.90;99.90;;;;;;5097845;28;20044;-78
2022/04/27 12:00:27;;;;;;;10.07;4.30;;;20.80;99.90;;;;;;5078808;28;20487;-79
2022/04/27 12:02:54;;;;;;;5.80;4.30;;;20.80;99.90;;;;;;5096909;28;20210;-78
2022/04/27 12:05:32;;;;;;;5.75;4.22;;;20.60;99.90;;;;;;5097890;28;20100;-77
2022/04/27 12:08:01;;;;;;;29.27;8.82;;;20.60;99.90;;;;;;5097084;28;20048;-78
2022/04/27 12:10:29;;;;;;;17.50;9.75;;;20.40;99.90;;;;;;5098447;28;20040;-78
2022/04/27 12:13:00;;;;;;;0.50;0.50;;;19.00;99.90;;;;;;5101923;28;20139;-80
2022/04/27 12:15:30;;;;;;;15.88;4.85;;;16.90;99.90;;;;;;5102057;28;20040;-80
2022/04/27 12:17:57;;;;;;;0.17;0.17;;;15.20;99.90;;;;;;5103413;28;20044;-80
2022/04/27 12:20:30;;;;;;;0.30;0.30;;;14.00;99.90;;;;;;5105003;28;20036;-78
2022/04/27 12:23:00;;;;;;;0.20;0.20;;;14.10;99.90;;;;;;5086637;28;20048;-80
2022/04/27 12:25:42;;;;;;;0.40;0.40;;;14.60;99.90;;;;;;5087868;28;20040;-80
2022/04/27 12:28:13;;;;;;;0.30;0.30;;;15.00;99.90;;;;;;5104384;28;20055;-82
2022/04/27 12:30:49;;;;;;;0.40;0.40;;;15.30;99.90;;;;;;5103124;28;20047;-81
2022/04/27 12:33:18;;;;;;;0.80;0.75;;;15.90;99.90;;;;;;5083795;28;20044;-78
2022/04/27 12:38:31;;;;;;;;;;;16.70;99.90;;;;;;5106182;28;20048;-79
2022/04/27 12:41:00;;;;;;;2.60;1.75;;;16.90;99.90;;;;;;5105084;28;20018;-79
2022/04/27 12:43:28;;;;;;;0.63;0.63;;;17.40;99.90;;;;;;5105611;28;20372;-79
2022/04/27 12:46:08;;;;;;;0.28;0.28;;;17.40;99.90;;;;;;5105926;28;20490;-79
2022/04/27 12:48:36;;;;;;;0.82;0.82;;;17.50;99.90;;;;;;5088288;28;20078;-79
2022/04/27 12:51:05;;;;;;;0.20;0.20;;;17.60;99.90;;;;;;5105527;28;20051;-79
2022/04/27 12:53:33;;;;;;;0.55;0.55;;;17.40;99.90;;;;;;5105041;28;20040;-78
2022/04/27 12:56:10;;;;;;;0.17;0.17;;;17.60;99.90;;;;;;5104255;28;20116;-79
2022/04/27 12:58:38;;;;;;;0.60;0.60;;;17.60;99.90;;;;;;5104932;28;20564;-78
2022/04/27 13:01:07;;;;;;;0.65;0.65;;;17.50;99.90;;;;;;5086380;28;20048;-78
2022/04/27 13:03:35;;;;;;;1.75;1.08;;;17.30;99.90;;;;;;5085562;28;20067;-78
2022/04/27 13:06:03;;;;;;;0.68;0.65;;;17.40;99.90;;;;;;5103146;28;20039;-77
2022/04/27 13:08:30;;;;;;;9.48;1.85;;;17.00;99.90;;;;;;5113248;28;20052;-79
2022/04/27 13:13:43;;;;;;;0.95;0.65;;;16.90;99.90;;;;;;5117320;28;20039;-81
2022/04/27 13:16:12;;;;;;;0.50;0.45;;;16.90;1.00;;;;;;5119010;28;20046;-81
2022/04/27 13:18:39;;;;;;;0.82;0.82;;;16.90;1.00;;;;;;5115182;28;20123;-81
2022/04/27 13:21:07;;;;;;;0.00;0.00;;;16.90;1.00;;;;;;5109205;28;20480;-81
2022/04/27 13:23:34;;;;;;;0.30;0.30;;;16.90;99.90;;;;;;5104826;28;20075;-82
2022/04/27 13:26:03;;;;;;;0.43;0.40;;;16.80;99.90;;;;;;5106606;28;20028;-78
2022/04/27 13:28:30;;;;;;;0.65;0.65;;;16.60;99.90;;;;;;5097525;28;20054;-78
2022/04/27 13:30:57;;;;;;;1.45;1.02;;;16.60;99.90;;;;;;5117591;28;20043;-78